sensor_id;sensor_type;location;lat;lon;timestamp;pressure;altitude;pressure_sealevel;temperature;humidity
62025;BME280;47978;49.118;12.146;2022-10-19T00:00:30;98458.75;;;12.27;100.00
62025;BME280;47978;49.118;12.146;2022-10-19T00:02:56;98464.81;;;12.29;100.00
62025;BME280;47978;49.118;12.146;2022-10-19T00:05:23;98466.50;;;12.30;100.00
62025;BME280;47978;49.118;12.146;2022-10-19T00:07:49;98468.66;;;12.33;100.00
62025;BME280;47978;49.118;12.146;2022-10-19T00:10:16;98470.63;;;12.33;100.00
62025;BME280;47978;49.118;12.146;2022-10-19T00:12:42;98480.31;;;12.35;100.00
62025;BME280;47978;49.118;12.146;2022-10-19T00:15:11;98485.53;;;12.37;100.00
62025;BME280;47978;49.118;12.146;2022-10-19T00:17:37;98487.78;;;12.35;100.00
62025;BME280;47978;49.118;12.146;2022-10-19T00:20:04;98494.69;;;12.37;100.00
62025;BME280;47978;49.118;12.146;2022-10-19T00:22:31;98492.41;;;12.45;100.00
62025;BME280;47978;49.118;12.146;2022-10-19T00:24:58;98490.94;;;12.52;100.00
62025;BME280;47978;49.118;12.146;2022-10-19T00:27:25;98498.13;;;12.53;100.00
62025;BME280;47978;49.118;12.146;2022-10-19T00:29:51;98499.78;;;12.54;100.00
62025;BME280;47978;49.118;12.146;2022-10-19T00:32:19;98500.59;;;12.55;100.00
62025;BME280;47978;49.118;12.146;2022-10-19T00:34:46;98493.94;;;12.56;100.00
62025;BME280;47978;49.118;12.146;2022-10-19T00:37:12;98494.50;;;12.58;100.00
62025;BME280;47978;49.118;12.146;2022-10-19T00:39:39;98495.00;;;12.60;100.00
62025;BME280;47978;49.118;12.146;2022-10-19T00:42:09;98486.69;;;12.60;100.00
62025;BME280;47978;49.118;12.146;2022-10-19T00:45:03;98487.28;;;12.57;100.00
62025;BME280;47978;49.118;12.146;2022-10-19T00:47:32;98487.00;;;12.58;100.00
62025;BME280;47978;49.118;12.146;2022-10-19T00:49:59;98478.78;;;12.48;100.00
62025;BME280;47978;49.118;12.146;2022-10-19T00:52:26;98493.22;;;12.45;100.00
62025;BME280;47978;49.118;12.146;2022-10-19T00:54:55;98489.41;;;12.41;100.00
62025;BME280;47978;49.118;12.146;2022-10-19T00:57:25;98490.09;;;12.28;100.00
62025;BME280;47978;49.118;12.146;2022-10-19T00:59:53;98488.19;;;12.23;100.00
62025;BME280;47978;49.118;12.146;2022-10-19T01:02:20;98492.44;;;12.15;100.00
62025;BME280;47978;49.118;12.146;2022-10-19T01:04:50;98496.31;;;12.14;100.00
62025;BME280;47978;49.118;12.146;2022-10-19T01:07:18;98490.53;;;12.11;100.00
62025;BME280;47978;49.118;12.146;2022-10-19T01:09:45;98487.72;;;12.16;100.00
62025;BME280;47978;49.118;12.146;2022-10-19T01:12:20;98488.91;;;12.05;100.00
62025;BME280;47978;49.118;12.146;2022-10-19T01:15:02;98495.09;;;11.97;100.00
62025;BME280;47978;49.118;12.146;2022-10-19T01:17:40;98492.84;;;11.99;100.00
62025;BME280;47978;49.118;12.146;2022-10-19T01:23:29;98491.09;;;12.08;100.00
62025;BME280;47978;49.118;12.146;2022-10-19T01:26:12;98487.50;;;12.07;100.00
62025;BME280;47978;49.118;12.146;2022-10-19T01:28:49;98486.09;;;12.10;100.00
62025;BME280;47978;49.118;12.146;2022-10-19T01:31:25;98491.34;;;12.11;100.00
62025;BME280;47978;49.118;12.146;2022-10-19T01:34:00;98484.97;;;12.11;100.00
62025;BME280;47978;49.118;12.146;2022-10-19T01:36:37;98475.28;;;12.08;100.00
62025;BME280;47978;49.118;12.146;2022-10-19T01:39:08;98471.13;;;12.11;100.00
62025;BME280;47978;49.118;12.146;2022-10-19T01:41:44;98464.75;;;12.10;100.00
62025;BME280;47978;49.118;12.146;2022-10-19T01:44:15;98464.97;;;12.14;100.00
62025;BME280;47978;49.118;12.146;2022-10-19T01:46:48;98466.34;;;12.17;100.00
62025;BME280;47978;49.118;12.146;2022-10-19T01:49:21;98467.72;;;12.19;100.00
62025;BME280;47978;49.118;12.146;2022-10-19T01:51:55;98469.34;;;12.20;100.00
62025;BME280;47978;49.118;12.146;2022-10-19T01:54:33;98462.72;;;12.21;100.00
62025;BME280;47978;49.118;12.146;2022-10-19T01:57:01;98459.66;;;12.18;100.00
62025;BME280;47978;49.118;12.146;2022-10-19T01:59:31;98463.56;;;12.17;100.00
62025;BME280;47978;49.118;12.146;2022-10-19T02:02:02;98452.47;;;12.17;100.00
62025;BME280;47978;49.118;12.146;2022-10-19T02:04:29;98446.88;;;12.22;100.00
62025;BME280;47978;49.118;12.146;2022-10-19T02:06:57;98449.34;;;12.23;100.00
62025;BME280;47978;49.118;12.146;2022-10-19T02:09:24;98437.97;;;12.25;100.00
62025;BME280;47978;49.118;12.146;2022-10-19T02:11:54;98436.03;;;12.25;100.00
62025;BME280;47978;49.118;12.146;2022-10-19T02:14:25;98447.72;;;12.22;100.00
62025;BME280;47978;49.118;12.146;2022-10-19T02:16:56;98442.81;;;12.14;100.00
62025;BME280;47978;49.118;12.146;2022-10-19T02:19:26;98448.13;;;12.10;100.00
62025;BME280;47978;49.118;12.146;2022-10-19T02:21:52;98444.56;;;12.05;100.00
62025;BME280;47978;49.118;12.146;2022-10-19T02:24:19;98441.78;;;12.05;100.00
62025;BME280;47978;49.118;12.146;2022-10-19T02:26:46;98445.97;;;12.02;100.00
62025;BME280;47978;49.118;12.146;2022-10-19T02:29:13;98440.06;;;12.09;100.00
62025;BME280;47978;49.118;12.146;2022-10-19T02:31:40;98439.25;;;12.08;100.00
62025;BME280;47978;49.118;12.146;2022-10-19T02:34:08;98432.56;;;12.09;100.00
62025;BME280;47978;49.118;12.146;2022-10-19T02:36:36;98434.53;;;12.09;100.00
62025;BME280;47978;49.118;12.146;2022-10-19T02:39:04;98433.47;;;12.05;100.00
62025;BME280;47978;49.118;12.146;2022-10-19T02:41:35;98434.34;;;12.00;100.00
62025;BME280;47978;49.118;12.146;2022-10-19T02:44:08;98434.16;;;11.91;100.00
62025;BME280;47978;49.118;12.146;2022-10-19T02:46:36;98434.16;;;11.91;100.00
62025;BME280;47978;49.118;12.146;2022-10-19T02:49:07;98431.59;;;11.95;100.00
62025;BME280;47978;49.118;12.146;2022-10-19T02:51:37;98421.66;;;11.94;100.00
62025;BME280;47978;49.118;12.146;2022-10-19T02:54:06;98419.19;;;11.92;99.85
62025;BME280;47978;49.118;12.146;2022-10-19T02:56:34;98423.03;;;11.97;99.47
62025;BME280;47978;49.118;12.146;2022-10-19T02:59:00;98413.69;;;11.87;99.46
62025;BME280;47978;49.118;12.146;2022-10-19T03:01:27;98415.34;;;11.88;99.99
62025;BME280;47978;49.118;12.146;2022-10-19T03:03:53;98407.09;;;11.78;99.93
62025;BME280;47978;49.118;12.146;2022-10-19T03:06:20;98412.94;;;11.77;100.00
62025;BME280;47978;49.118;12.146;2022-10-19T03:08:48;98407.41;;;11.71;100.00
62025;BME280;47978;49.118;12.146;2022-10-19T03:11:14;98413.00;;;11.66;100.00
62025;BME280;47978;49.118;12.146;2022-10-19T03:13:41;98409.22;;;11.57;100.00
62025;BME280;47978;49.118;12.146;2022-10-19T03:16:09;98412.31;;;11.51;100.00
62025;BME280;47978;49.118;12.146;2022-10-19T03:18:36;98411.75;;;11.54;100.00
62025;BME280;47978;49.118;12.146;2022-10-19T03:21:04;98410.13;;;11.47;100.00
62025;BME280;47978;49.118;12.146;2022-10-19T03:23:31;98410.13;;;11.47;100.00
62025;BME280;47978;49.118;12.146;2022-10-19T03:25:59;98407.06;;;11.49;100.00
62025;BME280;47978;49.118;12.146;2022-10-19T03:28:26;98406.75;;;11.56;100.00
62025;BME280;47978;49.118;12.146;2022-10-19T03:30:53;98403.28;;;11.35;100.00
62025;BME280;47978;49.118;12.146;2022-10-19T03:33:19;98406.94;;;11.30;100.00
62025;BME280;47978;49.118;12.146;2022-10-19T03:35:46;98405.75;;;11.41;100.00
62025;BME280;47978;49.118;12.146;2022-10-19T03:38:12;98404.66;;;11.37;100.00
62025;BME280;47978;49.118;12.146;2022-10-19T03:40:39;98402.34;;;11.49;100.00
62025;BME280;47978;49.118;12.146;2022-10-19T03:43:07;98399.38;;;11.41;100.00
62025;BME280;47978;49.118;12.146;2022-10-19T03:45:34;98401.75;;;11.18;100.00
62025;BME280;47978;49.118;12.146;2022-10-19T03:48:00;98405.16;;;11.10;100.00
62025;BME280;47978;49.118;12.146;2022-10-19T03:50:27;98408.38;;;11.22;100.00
62025;BME280;47978;49.118;12.146;2022-10-19T03:52:54;98395.91;;;11.25;100.00
62025;BME280;47978;49.118;12.146;2022-10-19T03:55:21;98411.69;;;11.24;100.00
62025;BME280;47978;49.118;12.146;2022-10-19T03:57:47;98406.94;;;11.30;100.00
62025;BME280;47978;49.118;12.146;2022-10-19T04:00:15;98404.97;;;11.36;100.00
62025;BME280;47978;49.118;12.146;2022-10-19T04:02:42;98402.09;;;11.46;100.00
62025;BME280;47978;49.118;12.146;2022-10-19T04:05:09;98407.59;;;11.51;100.00
62025;BME280;47978;49.118;12.146;2022-10-19T04:07:35;98409.44;;;11.61;100.00
62025;BME280;47978;49.118;12.146;2022-10-19T04:10:02;98413.84;;;11.67;100.00
62025;BME280;47978;49.118;12.146;2022-10-19T04:12:29;98409.44;;;11.61;100.00
62025;BME280;47978;49.118;12.146;2022-10-19T04:14:55;98412.00;;;11.52;100.00
62025;BME280;47978;49.118;12.146;2022-10-19T04:17:25;98405.06;;;11.55;100.00
62025;BME280;47978;49.118;12.146;2022-10-19T04:19:51;98405.66;;;11.52;100.00
62025;BME280;47978;49.118;12.146;2022-10-19T04:22:18;98406.44;;;11.57;100.00
62025;BME280;47978;49.118;12.146;2022-10-19T04:24:44;98411.63;;;11.64;100.00
62025;BME280;47978;49.118;12.146;2022-10-19T04:27:11;98410.00;;;11.63;100.00
62025;BME280;47978;49.118;12.146;2022-10-19T04:29:37;98409.22;;;11.57;100.00
62025;BME280;47978;49.118;12.146;2022-10-19T04:32:04;98416.47;;;11.53;100.00
62025;BME280;47978;49.118;12.146;2022-10-19T04:34:32;98410.13;;;11.47;100.00
62025;BME280;47978;49.118;12.146;2022-10-19T04:37:04;98412.34;;;11.45;100.00
62025;BME280;47978;49.118;12.146;2022-10-19T04:39:31;98414.00;;;11.46;100.00
62025;BME280;47978;49.118;12.146;2022-10-19T04:41:57;98415.13;;;11.45;100.00
62025;BME280;47978;49.118;12.146;2022-10-19T04:44:24;98407.59;;;11.51;100.00
62025;BME280;47978;49.118;12.146;2022-10-19T04:46:50;98413.38;;;11.55;100.00
62025;BME280;47978;49.118;12.146;2022-10-19T04:49:17;98405.06;;;11.55;100.00
62025;BME280;47978;49.118;12.146;2022-10-19T04:51:47;98407.31;;;11.53;100.00
62025;BME280;47978;49.118;12.146;2022-10-19T04:54:13;98407.03;;;11.54;100.00
62025;BME280;47978;49.118;12.146;2022-10-19T04:56:40;98401.72;;;11.58;100.00
62025;BME280;47978;49.118;12.146;2022-10-19T04:59:08;98397.59;;;11.55;100.00
62025;BME280;47978;49.118;12.146;2022-10-19T05:01:35;98395.34;;;11.57;100.00
62025;BME280;47978;49.118;12.146;2022-10-19T05:04:02;98396.72;;;11.60;100.00
62025;BME280;47978;49.118;12.146;2022-10-19T05:06:29;98405.28;;;11.63;99.70
62025;BME280;47978;49.118;12.146;2022-10-19T05:08:58;98403.97;;;11.56;99.86
62025;BME280;47978;49.118;12.146;2022-10-19T05:11:25;98405.97;;;11.50;99.85
62025;BME280;47978;49.118;12.146;2022-10-19T05:13:51;98398.53;;;11.40;100.00
62025;BME280;47978;49.118;12.146;2022-10-19T05:16:19;98401.41;;;11.30;100.00
62025;BME280;47978;49.118;12.146;2022-10-19T05:18:47;98402.78;;;11.33;100.00
62025;BME280;47978;49.118;12.146;2022-10-19T05:21:14;98400.53;;;11.35;100.00
62025;BME280;47978;49.118;12.146;2022-10-19T05:23:41;98395.53;;;11.37;100.00
62025;BME280;47978;49.118;12.146;2022-10-19T05:26:10;98394.97;;;11.40;100.00
62025;BME280;47978;49.118;12.146;2022-10-19T05:28:38;98395.75;;;11.45;100.00
62025;BME280;47978;49.118;12.146;2022-10-19T05:31:07;98395.78;;;11.40;100.00
62025;BME280;47978;49.118;12.146;2022-10-19T05:33:34;98389.25;;;11.26;100.00
62025;BME280;47978;49.118;12.146;2022-10-19T05:36:12;98394.69;;;11.02;100.00
62025;BME280;47978;49.118;12.146;2022-10-19T05:38:39;98390.81;;;10.98;100.00
62025;BME280;47978;49.118;12.146;2022-10-19T05:41:06;98388.94;;;10.93;100.00
62025;BME280;47978;49.118;12.146;2022-10-19T05:43:34;98394.63;;;10.68;100.00
62025;BME280;47978;49.118;12.146;2022-10-19T05:46:05;98388.25;;;10.67;100.00
62025;BME280;47978;49.118;12.146;2022-10-19T05:48:32;98387.91;;;10.79;100.00
62025;BME280;47978;49.118;12.146;2022-10-19T05:50:59;98392.28;;;10.90;100.00
62025;BME280;47978;49.118;12.146;2022-10-19T05:53:26;98393.56;;;11.03;100.00
62025;BME280;47978;49.118;12.146;2022-10-19T05:55:53;98395.47;;;11.08;100.00
62025;BME280;47978;49.118;12.146;2022-10-19T05:58:20;98392.75;;;10.97;100.00
62025;BME280;47978;49.118;12.146;2022-10-19T06:00:52;98403.28;;;10.95;100.00
62025;BME280;47978;49.118;12.146;2022-10-19T06:03:18;98404.06;;;11.06;100.00
62025;BME280;47978;49.118;12.146;2022-10-19T06:05:45;98400.41;;;11.16;100.00
62025;BME280;47978;49.118;12.146;2022-10-19T06:08:12;98398.75;;;11.15;99.81
62025;BME280;47978;49.118;12.146;2022-10-19T06:10:38;98399.84;;;11.19;100.00
62025;BME280;47978;49.118;12.146;2022-10-19T06:13:05;98397.00;;;11.24;99.24
62025;BME280;47978;49.118;12.146;2022-10-19T06:15:32;98393.13;;;11.25;99.09
62025;BME280;47978;49.118;12.146;2022-10-19T06:18:02;98402.66;;;11.09;98.84
62025;BME280;47978;49.118;12.146;2022-10-19T06:20:29;98402.81;;;10.83;99.86
62025;BME280;47978;49.118;12.146;2022-10-19T06:22:55;98399.44;;;10.96;99.68
62025;BME280;47978;49.118;12.146;2022-10-19T06:25:22;98411.25;;;11.07;99.58
62025;BME280;47978;49.118;12.146;2022-10-19T06:27:48;98404.00;;;11.16;99.29
62025;BME280;47978;49.118;12.146;2022-10-19T06:30:15;98407.56;;;11.22;99.01
62025;BME280;47978;49.118;12.146;2022-10-19T06:32:42;98414.69;;;11.33;98.61
62025;BME280;47978;49.118;12.146;2022-10-19T06:35:10;98420.78;;;11.30;98.08
62025;BME280;47978;49.118;12.146;2022-10-19T06:37:37;98418.81;;;11.36;98.22
62025;BME280;47978;49.118;12.146;2022-10-19T06:40:04;98416.53;;;11.43;97.88
62025;BME280;47978;49.118;12.146;2022-10-19T06:42:32;98426.78;;;11.42;97.89
62025;BME280;47978;49.118;12.146;2022-10-19T06:44:59;98427.75;;;11.62;96.92
62025;BME280;47978;49.118;12.146;2022-10-19T06:47:26;98428.19;;;11.74;96.79
62025;BME280;47978;49.118;12.146;2022-10-19T06:49:52;98438.09;;;11.85;95.71
62025;BME280;47978;49.118;12.146;2022-10-19T06:52:20;98433.38;;;11.86;95.88
62025;BME280;47978;49.118;12.146;2022-10-19T06:54:47;98440.81;;;11.90;95.05
62025;BME280;47978;49.118;12.146;2022-10-19T06:57:13;98446.25;;;12.01;94.73
62025;BME280;47978;49.118;12.146;2022-10-19T06:59:40;98448.50;;;11.99;93.55
62025;BME280;47978;49.118;12.146;2022-10-19T07:02:08;98446.84;;;11.98;94.66
62025;BME280;47978;49.118;12.146;2022-10-19T07:04:35;98445.16;;;12.02;94.44
62025;BME280;47978;49.118;12.146;2022-10-19T07:07:02;98454.63;;;11.96;94.91
62025;BME280;47978;49.118;12.146;2022-10-19T07:09:30;98453.50;;;11.97;95.19
62025;BME280;47978;49.118;12.146;2022-10-19T07:11:56;98453.34;;;12.12;94.64
62025;BME280;47978;49.118;12.146;2022-10-19T07:14:23;98456.44;;;12.10;94.73
62025;BME280;47978;49.118;12.146;2022-10-19T07:16:50;98459.19;;;12.10;93.76
62025;BME280;47978;49.118;12.146;2022-10-19T07:19:16;98472.75;;;11.78;95.51
62025;BME280;47978;49.118;12.146;2022-10-19T07:21:43;98466.34;;;11.87;95.58
62025;BME280;47978;49.118;12.146;2022-10-19T07:24:10;98454.84;;;12.04;95.46
62025;BME280;47978;49.118;12.146;2022-10-19T07:26:38;98457.22;;;12.16;94.51
62025;BME280;47978;49.118;12.146;2022-10-19T07:29:04;98463.34;;;12.13;94.60
62025;BME280;47978;49.118;12.146;2022-10-19T07:31:31;98461.06;;;12.15;94.54
62025;BME280;47978;49.118;12.146;2022-10-19T07:33:59;98465.03;;;12.38;93.29
62025;BME280;47978;49.118;12.146;2022-10-19T07:36:27;98469.91;;;12.46;93.35
62025;BME280;47978;49.118;12.146;2022-10-19T07:38:54;98451.56;;;12.50;92.90
62025;BME280;47978;49.118;12.146;2022-10-19T07:41:23;98448.19;;;12.53;92.30
62025;BME280;47978;49.118;12.146;2022-10-19T07:43:52;98453.63;;;12.40;92.18
62025;BME280;47978;49.118;12.146;2022-10-19T07:46:20;98454.13;;;11.88;94.66
62025;BME280;47978;49.118;12.146;2022-10-19T07:48:48;98459.53;;;12.04;94.42
62025;BME280;47978;49.118;12.146;2022-10-19T07:51:16;98453.31;;;12.17;94.16
62025;BME280;47978;49.118;12.146;2022-10-19T07:53:43;98454.25;;;12.31;94.03
62025;BME280;47978;49.118;12.146;2022-10-19T07:56:11;98454.09;;;12.47;93.95
62025;BME280;47978;49.118;12.146;2022-10-19T07:58:38;98459.53;;;12.57;93.39
62025;BME280;47978;49.118;12.146;2022-10-19T08:01:08;98459.19;;;12.64;93.04
62025;BME280;47978;49.118;12.146;2022-10-19T08:03:35;98468.03;;;12.90;92.28
62025;BME280;47978;49.118;12.146;2022-10-19T08:06:22;98461.56;;;12.94;91.87
62025;BME280;47978;49.118;12.146;2022-10-19T08:08:51;98453.91;;;13.05;92.04
62025;BME280;47978;49.118;12.146;2022-10-19T08:11:20;98451.44;;;13.22;91.81
62025;BME280;47978;49.118;12.146;2022-10-19T08:13:47;98452.38;;;13.37;91.63
62025;BME280;47978;49.118;12.146;2022-10-19T08:16:24;98454.47;;;13.45;91.05
62025;BME280;47978;49.118;12.146;2022-10-19T08:18:51;98455.28;;;12.65;92.92
62025;BME280;47978;49.118;12.146;2022-10-19T08:21:18;98454.06;;;13.14;92.28
62025;BME280;47978;49.118;12.146;2022-10-19T08:23:45;98451.13;;;13.29;92.17
62025;BME280;47978;49.118;12.146;2022-10-19T08:26:11;98450.00;;;13.49;91.34
62025;BME280;47978;49.118;12.146;2022-10-19T08:28:38;98456.22;;;13.41;91.02
62025;BME280;47978;49.118;12.146;2022-10-19T08:31:12;98451.72;;;13.45;91.60
62025;BME280;47978;49.118;12.146;2022-10-19T08:33:40;98455.84;;;13.28;91.55
62025;BME280;47978;49.118;12.146;2022-10-19T08:36:08;98458.72;;;12.99;93.42
62025;BME280;47978;49.118;12.146;2022-10-19T08:38:36;98455.03;;;12.85;93.02
62025;BME280;47978;49.118;12.146;2022-10-19T08:41:06;98459.47;;;13.05;93.07
62025;BME280;47978;49.118;12.146;2022-10-19T08:43:43;98452.38;;;13.37;91.29
62025;BME280;47978;49.118;12.146;2022-10-19T08:46:18;98454.00;;;13.76;88.87
62025;BME280;47978;49.118;12.146;2022-10-19T08:48:50;98465.31;;;13.98;88.01
62025;BME280;47978;49.118;12.146;2022-10-19T08:51:17;98463.44;;;13.93;86.84
62025;BME280;47978;49.118;12.146;2022-10-19T08:53:49;98463.91;;;14.14;85.42
62025;BME280;47978;49.118;12.146;2022-10-19T08:56:24;98468.38;;;14.29;86.13
62025;BME280;47978;49.118;12.146;2022-10-19T08:59:19;98471.66;;;14.17;85.51
62025;BME280;47978;49.118;12.146;2022-10-19T09:01:51;98471.31;;;14.19;86.60
62025;BME280;47978;49.118;12.146;2022-10-19T09:04:24;98471.53;;;14.09;86.42
62025;BME280;47978;49.118;12.146;2022-10-19T09:07:01;98463.78;;;14.52;85.46
62025;BME280;47978;49.118;12.146;2022-10-19T09:09:29;98470.75;;;14.36;86.07
62025;BME280;47978;49.118;12.146;2022-10-19T09:12:02;98468.94;;;14.59;86.15
62025;BME280;47978;49.118;12.146;2022-10-19T09:14:30;98469.16;;;14.76;85.52
62025;BME280;47978;49.118;12.146;2022-10-19T09:17:00;98468.13;;;15.00;84.04
62025;BME280;47978;49.118;12.146;2022-10-19T09:19:29;98466.59;;;14.80;83.93
62025;BME280;47978;49.118;12.146;2022-10-19T09:21:57;98468.50;;;14.66;85.38
62025;BME280;47978;49.118;12.146;2022-10-19T09:24:28;98459.72;;;15.14;82.92
62025;BME280;47978;49.118;12.146;2022-10-19T09:26:57;98464.44;;;15.27;82.69
62025;BME280;47978;49.118;12.146;2022-10-19T09:29:28;98461.78;;;15.22;82.08
62025;BME280;47978;49.118;12.146;2022-10-19T09:31:59;98458.75;;;15.32;81.97
62025;BME280;47978;49.118;12.146;2022-10-19T09:34:31;98463.81;;;15.66;81.32
62025;BME280;47978;49.118;12.146;2022-10-19T09:36:59;98458.91;;;15.49;80.55
62025;BME280;47978;49.118;12.146;2022-10-19T09:39:27;98459.22;;;15.48;79.81
62025;BME280;47978;49.118;12.146;2022-10-19T09:41:56;98473.03;;;15.17;80.82
62025;BME280;47978;49.118;12.146;2022-10-19T09:44:24;98463.34;;;15.50;79.78
62025;BME280;47978;49.118;12.146;2022-10-19T09:46:53;98481.00;;;15.10;80.30
62025;BME280;47978;49.118;12.146;2022-10-19T09:49:38;98481.72;;;14.74;81.59
62025;BME280;47978;49.118;12.146;2022-10-19T09:52:05;98491.31;;;13.88;84.23
62025;BME280;47978;49.118;12.146;2022-10-19T09:54:34;98489.31;;;14.08;84.86
62025;BME280;47978;49.118;12.146;2022-10-19T09:57:02;98482.66;;;14.55;83.41
62025;BME280;47978;49.118;12.146;2022-10-19T09:59:34;98484.84;;;14.86;81.56
62025;BME280;47978;49.118;12.146;2022-10-19T10:02:15;98493.59;;;15.07;80.40
62025;BME280;47978;49.118;12.146;2022-10-19T10:04:46;98495.22;;;15.22;78.79
62025;BME280;47978;49.118;12.146;2022-10-19T10:07:32;98497.88;;;15.27;77.40
62025;BME280;47978;49.118;12.146;2022-10-19T10:09:59;98494.72;;;14.92;79.22
62025;BME280;47978;49.118;12.146;2022-10-19T10:12:26;98494.72;;;15.06;78.91
62025;BME280;47978;49.118;12.146;2022-10-19T10:14:53;98506.06;;;15.10;78.07
62025;BME280;47978;49.118;12.146;2022-10-19T10:17:21;98499.88;;;15.13;78.20
62025;BME280;47978;49.118;12.146;2022-10-19T10:20:14;98506.06;;;15.23;77.76
62025;BME280;47978;49.118;12.146;2022-10-19T10:22:51;98508.56;;;14.97;78.36
62025;BME280;47978;49.118;12.146;2022-10-19T10:25:18;98516.28;;;14.87;79.08
62025;BME280;47978;49.118;12.146;2022-10-19T10:27:54;98519.13;;;14.54;79.88
62025;BME280;47978;49.118;12.146;2022-10-19T10:30:21;98514.63;;;14.72;80.11
62025;BME280;47978;49.118;12.146;2022-10-19T10:32:49;98511.31;;;14.70;80.20
62025;BME280;47978;49.118;12.146;2022-10-19T10:35:20;98502.44;;;14.68;79.90
62025;BME280;47978;49.118;12.146;2022-10-19T10:37:48;98506.72;;;14.32;81.19
62025;BME280;47978;49.118;12.146;2022-10-19T10:40:21;98500.66;;;14.11;82.64
62025;BME280;47978;49.118;12.146;2022-10-19T10:42:50;98490.81;;;13.67;82.35
62025;BME280;47978;49.118;12.146;2022-10-19T10:45:21;98498.75;;;13.93;83.08
62025;BME280;47978;49.118;12.146;2022-10-19T10:47:49;98485.56;;;14.17;81.79
62025;BME280;47978;49.118;12.146;2022-10-19T10:50:20;98477.63;;;14.57;79.67
62025;BME280;47978;49.118;12.146;2022-10-19T10:52:57;98476.28;;;14.69;79.06
62025;BME280;47978;49.118;12.146;2022-10-19T10:55:24;98475.50;;;14.49;79.00
62025;BME280;47978;49.118;12.146;2022-10-19T10:57:57;98466.34;;;14.49;79.67
62025;BME280;47978;49.118;12.146;2022-10-19T11:00:27;98466.59;;;14.33;79.35
62025;BME280;47978;49.118;12.146;2022-10-19T11:02:58;98462.81;;;14.29;81.17
62025;BME280;47978;49.118;12.146;2022-10-19T11:05:30;98461.13;;;14.14;81.51
62025;BME280;47978;49.118;12.146;2022-10-19T11:08:00;98462.81;;;14.29;81.95
62025;BME280;47978;49.118;12.146;2022-10-19T11:10:30;98457.63;;;14.23;81.12
62025;BME280;47978;49.118;12.146;2022-10-19T11:13:04;98445.16;;;14.06;82.05
62025;BME280;47978;49.118;12.146;2022-10-19T11:15:37;98442.28;;;14.25;80.99
62025;BME280;47978;49.118;12.146;2022-10-19T11:18:14;98438.84;;;14.61;80.18
62025;BME280;47978;49.118;12.146;2022-10-19T11:20:48;98434.09;;;14.61;80.08
62025;BME280;47978;49.118;12.146;2022-10-19T11:23:29;98429.25;;;14.53;79.71
62025;BME280;47978;49.118;12.146;2022-10-19T11:26:07;98427.91;;;14.78;79.25
62025;BME280;47978;49.118;12.146;2022-10-19T11:28:51;98417.03;;;14.91;78.68
62025;BME280;47978;49.118;12.146;2022-10-19T11:31:19;98421.31;;;14.74;79.21
62025;BME280;47978;49.118;12.146;2022-10-19T11:33:53;98416.97;;;14.82;77.53
62025;BME280;47978;49.118;12.146;2022-10-19T11:36:41;98413.63;;;14.94;76.48
62025;BME280;47978;49.118;12.146;2022-10-19T11:39:24;98409.94;;;14.84;76.20
62025;BME280;47978;49.118;12.146;2022-10-19T11:41:55;98399.00;;;14.88;76.92
62025;BME280;47978;49.118;12.146;2022-10-19T11:44:34;98392.69;;;15.33;76.07
62025;BME280;47978;49.118;12.146;2022-10-19T11:47:16;98389.91;;;15.33;75.05
62025;BME280;47978;49.118;12.146;2022-10-19T11:49:53;98383.63;;;15.27;74.72
62025;BME280;47978;49.118;12.146;2022-10-19T11:52:34;98381.25;;;14.98;75.02
62025;BME280;47978;49.118;12.146;2022-10-19T11:55:10;98369.25;;;15.34;75.19
62025;BME280;47978;49.118;12.146;2022-10-19T11:57:46;98374.25;;;15.00;75.09
62025;BME280;47978;49.118;12.146;2022-10-19T12:00:18;98369.41;;;15.28;74.69
62025;BME280;47978;49.118;12.146;2022-10-19T12:03:18;98371.28;;;15.19;74.45
62025;BME280;47978;49.118;12.146;2022-10-19T12:06:03;98368.06;;;15.26;74.67
62025;BME280;47978;49.118;12.146;2022-10-19T12:08:45;98362.69;;;15.29;74.58
62025;BME280;47978;49.118;12.146;2022-10-19T12:11:26;98365.00;;;15.14;74.49
62025;BME280;47978;49.118;12.146;2022-10-19T12:13:58;98359.16;;;15.01;73.52
62025;BME280;47978;49.118;12.146;2022-10-19T12:16:35;98354.28;;;15.07;74.31
62025;BME280;47978;49.118;12.146;2022-10-19T12:19:04;98351.00;;;15.27;73.51
62025;BME280;47978;49.118;12.146;2022-10-19T12:21:34;98345.06;;;15.65;72.90
62025;BME280;47978;49.118;12.146;2022-10-19T12:24:09;98346.03;;;15.83;72.89
62025;BME280;47978;49.118;12.146;2022-10-19T12:26:37;98345.41;;;15.95;70.55
62025;BME280;47978;49.118;12.146;2022-10-19T12:29:11;98347.53;;;15.67;70.14
62025;BME280;47978;49.118;12.146;2022-10-19T12:31:39;98349.69;;;15.47;71.69
62025;BME280;47978;49.118;12.146;2022-10-19T12:34:12;98352.47;;;15.47;70.40
62025;BME280;47978;49.118;12.146;2022-10-19T12:36:49;98337.25;;;15.53;71.02
62025;BME280;47978;49.118;12.146;2022-10-19T12:39:23;98334.28;;;15.50;70.07
62025;BME280;47978;49.118;12.146;2022-10-19T12:41:55;98327.22;;;15.44;70.20
62025;BME280;47978;49.118;12.146;2022-10-19T12:53:41;98312.00;;;15.50;69.59
62025;BME280;47978;49.118;12.146;2022-10-19T12:56:15;98310.47;;;15.44;69.53
62025;BME280;47978;49.118;12.146;2022-10-19T12:58:50;98318.78;;;15.35;68.84
62025;BME280;47978;49.118;12.146;2022-10-19T13:01:22;98305.72;;;15.44;69.02
62025;BME280;47978;49.118;12.146;2022-10-19T13:03:53;98313.38;;;15.61;70.18
62025;BME280;47978;49.118;12.146;2022-10-19T13:06:33;98307.41;;;15.45;71.11
62025;BME280;47978;49.118;12.146;2022-10-19T13:09:02;98304.06;;;15.66;70.39
62025;BME280;47978;49.118;12.146;2022-10-19T13:11:31;98288.09;;;15.80;69.88